Main page
METAR-TAF:

METAR-TAF

Airports :

Gran Canaria Airport

Gran Canaria, Spain

latitude: 27-56N, longitude: 015-23W, elevation: 23 m

Current weather observation

The report was made 32 minutes ago, at 12:00 UTC
Wind 22 kt from the North
Temperature 30°C
Humidity 49%
Pressure 1013 hPa
Visibility 10 km or more
Few clouds at a height of 1800 ft

METAR: GCLP 251200Z 01022KT 9999 FEW018 30/18 Q1013 NOSIG

Time: 13:32 (12:32 UTC)

Forecast

The report was made 20 minutes ago, at 12:12 UTC
Forecast valid from 25 at 12 UTC to 26 at 09 UTC
Wind 25 kt from the North/Northeast
Visibility 10 km or more
Few clouds at a height of 1500 ft
Probability 40% :
Temporary
from 25 at 12 UTC to 25 at 24 UTC
Wind 26 kt from the North/Northeast with gusts up to 36 kt
Temporary
from 25 at 12 UTC to 25 at 21 UTC
Few clouds at a height of 12000 ft, Cumulonimbus.
thunderstorm, rain

TAF: GCLP 251212Z 2512/2609 02025KT 9999 FEW015 TX30/2514Z TN25/2605Z PROB40 TEMPO 2512/2524 02026G36KT TEMPO 2512/2521 TSRA FEW120CB

Weather observations and forecasts of more than 4000 airports (METAR and TAF reports).

The available stations are represented by yellow and red dots on the map.

Hover mouse over dot to see the name of the station.

Then click to see weather observations and forecasts.

To change the map : click on the green buttons with a black cross to zoom in, on the green button with a dash to zoom out, or on the green arrows for adjacent maps.


METAR-TAF: